createdAt,value
2023-03-07T00:02:28.007Z,55.64
2023-03-07T00:04:58.564Z,55.17
2023-03-07T00:07:29.013Z,55.73
2023-03-07T00:10:01.808Z,55.84
2023-03-07T00:12:32.141Z,54.74
2023-03-07T00:15:02.719Z,55.14
2023-03-07T00:17:33.093Z,55.60
2023-03-07T00:20:03.351Z,56.34
2023-03-07T00:22:33.572Z,56.60
2023-03-07T00:25:04.283Z,56.25
2023-03-07T00:27:35.699Z,55.84
2023-03-07T00:30:07.305Z,56.31
2023-03-07T00:32:37.678Z,55.95
2023-03-07T00:35:08.496Z,56.31
2023-03-07T00:37:39.056Z,55.66
2023-03-07T00:40:10.906Z,55.98
2023-03-07T00:42:41.819Z,55.94
2023-03-07T00:45:12.356Z,55.91
2023-03-07T00:47:42.831Z,55.70
2023-03-07T00:50:13.341Z,56.45
2023-03-07T00:52:43.559Z,55.59
2023-03-07T00:55:13.820Z,55.17
2023-03-07T00:57:44.099Z,55.49
2023-03-07T01:00:18.066Z,55.30
2023-03-07T01:02:48.286Z,55.19
2023-03-07T01:05:18.715Z,55.31
2023-03-07T01:07:49.101Z,55.39
2023-03-07T01:10:20.180Z,55.30
2023-03-07T01:12:50.367Z,54.89
2023-03-07T01:15:20.788Z,54.63
2023-03-07T01:17:51.040Z,54.89
2023-03-07T01:20:21.404Z,54.55
2023-03-07T01:22:51.785Z,54.67
2023-03-07T01:25:22.290Z,54.34
2023-03-07T01:27:59.575Z,54.59
2023-03-07T01:30:32.191Z,54.16
2023-03-07T01:33:03.488Z,54.30
2023-03-07T01:35:38.758Z,54.14
2023-03-07T01:38:09.476Z,53.92
2023-03-07T01:40:41.471Z,54.19
2023-03-07T01:43:24.737Z,53.79
2023-03-07T01:46:23.230Z,54.09
2023-03-07T01:48:59.783Z,53.88
2023-03-07T01:51:32.978Z,53.67
2023-03-07T01:54:06.611Z,53.62
2023-03-07T01:56:38.760Z,53.65
2023-03-07T01:59:10.200Z,53.17
2023-03-07T02:01:40.779Z,53.27
2023-03-07T02:04:17.943Z,53.11
2023-03-07T02:06:48.438Z,53.08
2023-03-07T02:09:20.788Z,52.94
2023-03-07T02:11:51.376Z,52.81
2023-03-07T02:14:21.699Z,52.72
2023-03-07T02:16:52.906Z,53.10
2023-03-07T02:19:39.395Z,52.68
2023-03-07T02:22:12.400Z,52.56
2023-03-07T02:25:04.226Z,52.49
2023-03-07T02:27:36.529Z,52.36
2023-03-07T02:30:08.229Z,52.80
2023-03-07T02:32:38.661Z,52.60
2023-03-07T02:35:16.932Z,52.25
2023-03-07T02:37:51.303Z,52.60
2023-03-07T02:40:25.380Z,52.60
2023-03-07T02:42:58.162Z,52.45
2023-03-07T02:45:28.633Z,52.37
2023-03-07T02:47:58.982Z,51.95
2023-03-07T02:50:32.129Z,52.40
2023-03-07T02:53:02.555Z,52.38
2023-03-07T02:55:32.923Z,51.84
2023-03-07T02:58:06.029Z,52.24
2023-03-07T03:00:36.724Z,52.17
2023-03-07T03:03:07.425Z,52.12
2023-03-07T03:05:37.808Z,51.97
2023-03-07T03:08:08.246Z,51.94
2023-03-07T03:10:38.758Z,51.93
2023-03-07T03:13:09.492Z,51.67
2023-03-07T03:15:41.050Z,51.39
2023-03-07T03:18:11.330Z,51.28
2023-03-07T03:20:42.474Z,51.59
2023-03-07T03:23:13.976Z,51.84
2023-03-07T03:25:44.364Z,51.06
2023-03-07T03:28:15.016Z,51.15
2023-03-07T03:30:45.658Z,51.40
2023-03-07T03:33:16.363Z,51.46
2023-03-07T03:35:49.258Z,50.93
2023-03-07T03:38:19.869Z,50.94
2023-03-07T03:40:50.287Z,51.18
2023-03-07T03:43:21.363Z,51.02
2023-03-07T03:45:58.482Z,51.10
2023-03-07T03:48:31.444Z,50.82
2023-03-07T03:51:18.878Z,51.02
2023-03-07T03:53:49.160Z,50.41
2023-03-07T03:56:23.018Z,50.87
2023-03-07T03:58:54.356Z,50.75
2023-03-07T04:01:27.138Z,50.41
2023-03-07T04:03:59.931Z,50.65
2023-03-07T04:06:31.763Z,50.62
2023-03-07T04:09:02.462Z,50.03
2023-03-07T04:11:32.772Z,50.11
2023-03-07T04:14:03.372Z,50.36
2023-03-07T04:16:33.859Z,49.96
2023-03-07T04:19:04.406Z,49.79
2023-03-07T04:21:34.792Z,49.80
2023-03-07T04:24:05.436Z,50.26
2023-03-07T04:26:39.773Z,50.19
2023-03-07T04:29:10.243Z,50.21
2023-03-07T04:31:46.051Z,50.13
2023-03-07T04:34:16.624Z,49.67
2023-03-07T04:36:47.199Z,49.43
2023-03-07T04:39:17.908Z,49.60
2023-03-07T04:41:48.930Z,49.78
2023-03-07T04:44:22.579Z,49.72
2023-03-07T04:46:53.022Z,49.90
2023-03-07T04:49:23.501Z,49.93
2023-03-07T04:51:53.759Z,49.57
2023-03-07T04:54:24.021Z,49.45
2023-03-07T04:56:54.486Z,49.15
2023-03-07T04:59:25.095Z,49.15
2023-03-07T05:01:55.914Z,49.33
2023-03-07T05:04:26.670Z,49.36
2023-03-07T05:06:57.709Z,49.23
2023-03-07T05:09:28.292Z,49.28
2023-03-07T05:11:58.679Z,49.39
2023-03-07T05:14:29.196Z,48.77
2023-03-07T05:16:59.489Z,48.96
2023-03-07T05:19:29.732Z,49.12
2023-03-07T05:22:00.417Z,49.33
2023-03-07T05:24:30.649Z,48.88
2023-03-07T05:27:01.645Z,49.12
2023-03-07T05:29:31.854Z,48.78
2023-03-07T05:32:03.119Z,49.24
2023-03-07T05:34:33.401Z,49.20
2023-03-07T05:37:03.971Z,49.01
2023-03-07T05:39:35.202Z,48.62
2023-03-07T05:42:05.728Z,48.79
2023-03-07T05:44:36.955Z,48.68
2023-03-07T05:47:08.399Z,48.47
2023-03-07T05:49:39.340Z,48.46
2023-03-07T05:52:09.607Z,48.76
2023-03-07T05:54:39.847Z,48.42
2023-03-07T05:57:10.376Z,48.46
2023-03-07T05:59:42.623Z,48.72
2023-03-07T06:02:12.809Z,48.40
2023-03-07T06:04:43.491Z,48.54
2023-03-07T06:07:14.039Z,48.57
2023-03-07T06:09:44.895Z,48.06
2023-03-07T06:12:16.067Z,48.11
2023-03-07T06:14:47.080Z,48.31
2023-03-07T06:17:17.298Z,47.95
2023-03-07T06:19:48.291Z,48.13
2023-03-07T06:22:18.497Z,47.62
2023-03-07T06:24:49.471Z,47.80
2023-03-07T06:27:20.416Z,48.16
2023-03-07T06:29:50.616Z,48.04
2023-03-07T06:32:20.997Z,47.58
2023-03-07T06:34:51.432Z,47.37
2023-03-07T06:37:21.770Z,47.80
2023-03-07T06:39:52.378Z,47.87
2023-03-07T06:42:23.220Z,47.58
2023-03-07T06:44:53.499Z,47.76
2023-03-07T06:47:23.846Z,47.18
2023-03-07T06:49:54.840Z,47.32
2023-03-07T06:52:25.198Z,47.33
2023-03-07T06:54:55.864Z,47.29
2023-03-07T06:57:26.598Z,47.13
2023-03-07T06:59:56.961Z,47.16
2023-03-07T07:02:29.271Z,46.92
2023-03-07T07:05:01.265Z,46.76
2023-03-07T07:07:33.176Z,47.13
2023-03-07T07:10:03.556Z,47.33
2023-03-07T07:12:33.906Z,46.79
2023-03-07T07:15:06.509Z,46.92
2023-03-07T07:17:37.245Z,46.69
2023-03-07T07:20:08.351Z,46.67
2023-03-07T07:22:38.693Z,46.65
2023-03-07T07:25:09.441Z,46.61
2023-03-07T07:27:40.156Z,46.59
2023-03-07T07:30:11.043Z,46.32
2023-03-07T07:32:41.589Z,46.55
2023-03-07T07:35:12.611Z,46.06
2023-03-07T07:37:43.365Z,46.20
2023-03-07T07:40:15.086Z,45.98
2023-03-07T07:42:46.857Z,45.80
2023-03-07T07:45:24.427Z,45.74
2023-03-07T07:47:55.476Z,45.87
2023-03-07T07:50:26.310Z,45.67
2023-03-07T07:52:56.586Z,45.64
2023-03-07T07:55:27.773Z,45.76
2023-03-07T07:57:58.766Z,45.21
2023-03-07T08:00:29.163Z,45.53
2023-03-07T08:03:00.445Z,45.44
2023-03-07T08:05:30.650Z,45.48
2023-03-07T08:08:00.977Z,45.46
2023-03-07T08:10:31.341Z,44.88
2023-03-07T08:13:01.496Z,44.88
2023-03-07T08:15:31.735Z,44.93
2023-03-07T08:18:02.304Z,45.06
2023-03-07T08:20:32.886Z,45.07
2023-03-07T08:23:03.551Z,45.00
2023-03-07T08:25:33.943Z,44.97
2023-03-07T08:28:06.821Z,45.16
2023-03-07T08:30:38.514Z,44.99
2023-03-07T08:33:08.936Z,45.09
2023-03-07T08:35:42.291Z,45.04
2023-03-07T08:38:13.163Z,45.09
2023-03-07T08:40:43.445Z,45.12
2023-03-07T08:43:13.755Z,45.12
2023-03-07T08:45:44.159Z,45.08
2023-03-07T08:48:14.483Z,45.01
2023-03-07T08:50:44.698Z,45.02
2023-03-07T08:53:18.124Z,45.00
2023-03-07T08:55:48.560Z,45.04
2023-03-07T08:58:19.077Z,44.81
2023-03-07T09:00:49.452Z,45.03
2023-03-07T09:03:19.588Z,45.06
2023-03-07T09:05:49.729Z,45.11
2023-03-07T09:08:20.286Z,44.81
2023-03-07T09:10:50.496Z,44.76
2023-03-07T09:13:21.674Z,44.87
2023-03-07T09:15:51.963Z,45.26
2023-03-07T09:18:24.402Z,45.92
2023-03-07T09:20:54.689Z,46.48
2023-03-07T09:23:24.854Z,46.74
2023-03-07T09:25:55.102Z,47.23
2023-03-07T09:28:25.297Z,47.47
2023-03-07T09:30:55.737Z,47.91
2023-03-07T09:33:26.892Z,48.59
2023-03-07T09:35:57.310Z,48.66
2023-03-07T09:38:28.202Z,48.84
2023-03-07T09:41:03.571Z,49.13
2023-03-07T09:43:43.715Z,49.08
2023-03-07T09:46:47.877Z,49.16
2023-03-07T09:49:21.287Z,49.22
2023-03-07T09:51:53.709Z,49.42
2023-03-07T09:54:26.294Z,49.30
2023-03-07T09:57:00.359Z,49.34
2023-03-07T09:59:40.468Z,49.16
2023-03-07T10:02:20.197Z,49.37
2023-03-07T10:04:54.380Z,49.60
2023-03-07T10:07:26.340Z,49.37
2023-03-07T10:10:02.382Z,49.74
2023-03-07T10:12:48.525Z,49.43
2023-03-07T10:15:30.013Z,49.44
2023-03-07T10:18:18.577Z,49.37
2023-03-07T10:21:04.245Z,49.46
2023-03-07T10:23:34.630Z,49.72
2023-03-07T10:26:17.915Z,49.79
2023-03-07T10:28:49.831Z,49.85
2023-03-07T10:31:24.308Z,49.84
2023-03-07T10:33:55.996Z,49.94
2023-03-07T10:36:38.714Z,49.59
2023-03-07T10:39:47.753Z,49.76
2023-03-07T10:42:19.232Z,49.97
2023-03-07T10:44:50.411Z,49.86
2023-03-07T10:47:25.335Z,50.38
2023-03-07T10:50:28.266Z,49.94
2023-03-07T10:53:00.207Z,50.62
2023-03-07T10:55:36.458Z,50.42
2023-03-07T10:58:17.292Z,49.90
2023-03-07T11:00:48.612Z,49.36
2023-03-07T11:03:51.052Z,48.95
2023-03-07T11:06:28.240Z,48.85
2023-03-07T11:08:58.679Z,48.50
2023-03-07T11:11:33.751Z,48.53
2023-03-07T11:14:14.587Z,48.27
2023-03-07T11:16:46.016Z,48.14
2023-03-07T11:19:31.529Z,48.13
2023-03-07T11:22:05.094Z,48.05
2023-03-07T11:24:49.028Z,48.40
2023-03-07T11:27:27.317Z,48.29
2023-03-07T11:30:08.822Z,48.29
2023-03-07T11:32:42.009Z,48.08
2023-03-07T11:35:22.465Z,48.48
2023-03-07T11:38:02.893Z,48.39
2023-03-07T11:40:44.008Z,48.33
2023-03-07T11:43:25.966Z,48.40
2023-03-07T11:46:05.623Z,48.69
2023-03-07T11:48:47.134Z,48.69
2023-03-07T11:51:59.055Z,48.59
2023-03-07T11:54:35.730Z,48.79
2023-03-07T11:57:29.500Z,48.96
2023-03-07T12:00:02.788Z,48.89
2023-03-07T12:02:54.490Z,49.15
2023-03-07T12:05:42.941Z,49.00
2023-03-07T12:08:27.902Z,49.23
2023-03-07T12:11:04.093Z,49.06
2023-03-07T12:13:41.695Z,48.99
2023-03-07T12:16:28.442Z,49.39
2023-03-07T12:19:01.852Z,49.21
2023-03-07T12:21:41.492Z,49.28
2023-03-07T12:24:21.889Z,49.38
2023-03-07T12:27:01.491Z,49.47
2023-03-07T12:29:48.172Z,49.41
2023-03-07T12:32:21.787Z,49.74
2023-03-07T12:35:07.658Z,49.63
2023-03-07T12:37:50.923Z,49.33
2023-03-07T12:40:22.861Z,49.48
2023-03-07T12:42:57.943Z,49.55
2023-03-07T12:45:37.762Z,49.42
2023-03-07T12:48:26.113Z,49.95
2023-03-07T12:51:01.824Z,49.50
2023-03-07T12:53:42.131Z,50.00
2023-03-07T12:56:24.230Z,49.85
2023-03-07T12:58:57.653Z,50.11
2023-03-07T13:01:29.985Z,50.10
2023-03-07T13:04:06.235Z,50.43
2023-03-07T13:06:39.774Z,50.43
2023-03-07T13:09:16.499Z,50.56
2023-03-07T13:12:04.755Z,50.73
2023-03-07T13:14:42.664Z,50.98
2023-03-07T13:17:13.775Z,51.07
2023-03-07T13:19:45.313Z,51.09
2023-03-07T13:22:18.560Z,51.40
2023-03-07T13:24:49.387Z,53.23
2023-03-07T13:27:19.657Z,54.12
2023-03-07T13:30:08.141Z,54.56
2023-03-07T13:32:53.616Z,55.13
2023-03-07T13:35:32.418Z,55.78
2023-03-07T13:38:06.720Z,56.03
2023-03-07T13:40:36.833Z,55.91
2023-03-07T13:43:22.110Z,56.07
2023-03-07T13:45:54.282Z,56.47
2023-03-07T13:48:30.352Z,56.25
2023-03-07T13:51:10.813Z,56.41
2023-03-07T13:53:52.300Z,56.15
2023-03-07T13:56:26.536Z,56.12
2023-03-07T13:59:05.614Z,56.61
2023-03-07T14:01:40.664Z,57.08
2023-03-07T14:04:38.827Z,57.22
2023-03-07T14:07:29.540Z,57.63
2023-03-07T14:10:22.321Z,57.21
2023-03-07T14:13:02.039Z,57.53
2023-03-07T14:15:50.712Z,57.75
2023-03-07T14:18:26.257Z,57.41
2023-03-07T14:20:59.738Z,57.72
2023-03-07T14:23:52.538Z,57.26
2023-03-07T14:26:26.612Z,57.43
2023-03-07T14:29:01.217Z,57.94
2023-03-07T14:31:33.610Z,57.83
2023-03-07T14:34:07.288Z,58.14
2023-03-07T14:36:39.706Z,55.43
2023-03-07T14:39:14.532Z,53.32
2023-03-07T14:41:50.575Z,51.62
2023-03-07T14:44:39.330Z,51.26
2023-03-07T14:47:21.536Z,50.41
2023-03-07T14:50:06.851Z,49.72
2023-03-07T14:52:38.109Z,49.16
2023-03-07T14:55:22.105Z,48.05
2023-03-07T14:57:54.528Z,47.72
2023-03-07T15:00:31.909Z,47.21
2023-03-07T15:03:09.909Z,46.99
2023-03-07T15:05:51.498Z,46.01
2023-03-07T15:08:24.786Z,45.57
2023-03-07T15:11:08.114Z,45.52
2023-03-07T15:13:42.969Z,45.23
2023-03-07T15:16:17.654Z,44.81
2023-03-07T15:18:52.092Z,44.27
2023-03-07T15:21:23.869Z,44.12
2023-03-07T15:23:58.646Z,43.45
2023-03-07T15:26:29.765Z,43.16
2023-03-07T15:29:02.075Z,43.73
2023-03-07T15:31:36.267Z,43.32
2023-03-07T15:34:22.384Z,43.46
2023-03-07T15:36:52.640Z,43.19
2023-03-07T15:39:35.827Z,42.78
2023-03-07T15:42:10.281Z,42.22
2023-03-07T15:44:40.471Z,41.99
2023-03-07T15:47:16.057Z,41.80
2023-03-07T15:49:52.185Z,41.69
2023-03-07T15:52:35.858Z,41.52
2023-03-07T15:55:09.519Z,41.51
2023-03-07T15:57:42.271Z,41.67
2023-03-07T16:00:25.342Z,41.74
2023-03-07T16:03:17.491Z,41.82
2023-03-07T16:05:50.088Z,41.08
2023-03-07T16:08:26.147Z,40.78
2023-03-07T16:10:56.529Z,40.52
2023-03-07T16:13:30.144Z,40.87
2023-03-07T16:16:29.679Z,40.51
2023-03-07T16:19:00.152Z,39.99
2023-03-07T16:21:30.462Z,40.67
2023-03-07T16:24:00.769Z,40.56
2023-03-07T16:26:32.742Z,40.55
2023-03-07T16:29:03.484Z,41.18
2023-03-07T16:31:33.740Z,41.08
2023-03-07T16:34:04.130Z,41.20
2023-03-07T16:36:34.830Z,41.11
2023-03-07T16:39:05.222Z,40.90
2023-03-07T16:41:35.635Z,40.64
2023-03-07T16:44:06.174Z,40.35
2023-03-07T16:46:36.949Z,40.70
2023-03-07T16:49:07.179Z,40.29
2023-03-07T16:51:37.343Z,40.43
2023-03-07T16:54:07.620Z,40.23
2023-03-07T16:56:43.062Z,40.16
2023-03-07T16:59:18.716Z,40.09
2023-03-07T17:01:50.522Z,40.25
2023-03-07T17:04:20.962Z,40.23
2023-03-07T17:07:03.875Z,40.81
2023-03-07T17:09:35.057Z,40.82
2023-03-07T17:12:05.389Z,40.52
2023-03-07T17:14:36.820Z,40.68
2023-03-07T17:17:08.076Z,41.04
2023-03-07T17:19:38.384Z,41.00
2023-03-07T17:22:08.917Z,41.31
2023-03-07T17:24:40.036Z,40.84
2023-03-07T17:27:10.658Z,41.26
2023-03-07T17:29:45.299Z,40.97
2023-03-07T17:32:15.985Z,41.41
2023-03-07T17:34:46.866Z,41.14
2023-03-07T17:37:17.599Z,41.32
2023-03-07T17:39:48.043Z,41.38
2023-03-07T17:42:18.392Z,41.28
2023-03-07T17:44:48.786Z,41.43
2023-03-07T17:47:19.664Z,41.25
2023-03-07T17:49:51.774Z,41.23
2023-03-07T17:52:22.374Z,41.39
2023-03-07T17:54:53.167Z,41.14
2023-03-07T17:57:24.119Z,41.29
2023-03-07T17:59:55.207Z,40.91
2023-03-07T18:02:26.334Z,41.08
2023-03-07T18:04:56.851Z,41.16
2023-03-07T18:07:27.308Z,41.15
2023-03-07T18:10:07.995Z,41.24
2023-03-07T18:12:40.691Z,41.01
2023-03-07T18:15:15.465Z,41.04
2023-03-07T18:17:48.755Z,40.94
2023-03-07T18:20:21.857Z,41.34
2023-03-07T18:22:52.956Z,41.18
2023-03-07T18:25:25.426Z,40.94
2023-03-07T18:27:56.128Z,41.13
2023-03-07T18:30:27.154Z,41.11
2023-03-07T18:32:57.857Z,40.99
2023-03-07T18:35:28.631Z,40.92
2023-03-07T18:38:00.391Z,41.03
2023-03-07T18:40:31.563Z,41.04
2023-03-07T18:43:02.079Z,41.27
2023-03-07T18:45:33.360Z,40.79
2023-03-07T18:48:03.579Z,40.88
2023-03-07T18:50:33.874Z,41.03
2023-03-07T18:53:05.326Z,41.17
2023-03-07T18:55:39.053Z,41.10
2023-03-07T18:58:09.926Z,41.30
2023-03-07T19:00:40.206Z,41.00
2023-03-07T19:03:10.569Z,41.28
2023-03-07T19:05:48.179Z,40.89
2023-03-07T19:08:19.131Z,40.81
2023-03-07T19:10:49.407Z,41.11
2023-03-07T19:13:19.823Z,40.78
2023-03-07T19:15:50.514Z,40.79
2023-03-07T19:18:20.813Z,40.74
2023-03-07T19:20:51.241Z,40.90
2023-03-07T19:23:22.843Z,40.85
2023-03-07T19:25:53.799Z,40.65
2023-03-07T19:28:24.091Z,40.92
2023-03-07T19:30:54.426Z,40.93
2023-03-07T19:33:25.716Z,40.98
2023-03-07T19:36:03.959Z,40.99
2023-03-07T19:38:34.294Z,40.64
2023-03-07T19:41:05.896Z,40.84
2023-03-07T19:43:36.560Z,40.50
2023-03-07T19:46:07.918Z,40.95
2023-03-07T19:48:40.704Z,40.92
2023-03-07T19:51:18.085Z,40.79
2023-03-07T19:53:49.024Z,40.70
2023-03-07T19:56:21.492Z,40.86
2023-03-07T19:58:52.015Z,40.67
2023-03-07T20:01:23.686Z,40.76
2023-03-07T20:03:55.206Z,40.88
2023-03-07T20:06:31.202Z,40.80
2023-03-07T20:09:02.996Z,40.58
2023-03-07T20:11:37.243Z,40.78
2023-03-07T20:14:08.709Z,40.60
2023-03-07T20:16:39.856Z,40.49
2023-03-07T20:19:11.323Z,40.74
2023-03-07T20:21:43.848Z,40.85
2023-03-07T20:24:14.417Z,40.50
2023-03-07T20:26:45.260Z,40.80
2023-03-07T20:29:16.416Z,40.73
2023-03-07T20:31:46.803Z,41.09
2023-03-07T20:34:17.554Z,40.80
2023-03-07T20:36:48.729Z,41.01
2023-03-07T20:39:20.053Z,40.92
2023-03-07T20:41:51.544Z,40.67
2023-03-07T20:44:22.200Z,40.88
2023-03-07T20:46:52.742Z,40.76
2023-03-07T20:49:23.159Z,40.56
2023-03-07T20:51:54.046Z,41.00
2023-03-07T20:54:25.562Z,40.98
2023-03-07T20:56:56.232Z,40.80
2023-03-07T20:59:26.783Z,40.71
2023-03-07T21:01:57.267Z,40.44
2023-03-07T21:04:27.901Z,41.24
2023-03-07T21:06:58.481Z,42.84
2023-03-07T21:09:32.193Z,44.21
2023-03-07T21:12:02.652Z,45.08
2023-03-07T21:14:33.158Z,46.55
2023-03-07T21:17:05.203Z,47.20
2023-03-07T21:19:35.548Z,48.00
2023-03-07T21:22:06.052Z,46.95
2023-03-07T21:24:36.524Z,46.19
2023-03-07T21:27:06.941Z,45.49
2023-03-07T21:29:37.304Z,44.82
2023-03-07T21:32:07.473Z,44.65
2023-03-07T21:34:37.685Z,44.17
2023-03-07T21:37:07.922Z,44.52
2023-03-07T21:39:38.338Z,46.00
2023-03-07T21:42:08.874Z,47.32
2023-03-07T21:44:39.453Z,48.51
2023-03-07T21:47:09.814Z,48.98
2023-03-07T21:49:40.393Z,50.14
2023-03-07T21:52:11.180Z,50.38
2023-03-07T21:54:41.631Z,48.96
2023-03-07T21:57:11.970Z,47.95
2023-03-07T21:59:43.020Z,47.15
2023-03-07T22:02:13.774Z,46.60
2023-03-07T22:04:44.144Z,45.59
2023-03-07T22:07:15.814Z,45.40
2023-03-07T22:09:46.070Z,46.01
2023-03-07T22:12:54.871Z,46.98
2023-03-07T22:15:27.990Z,49.07
2023-03-07T22:17:58.233Z,50.30
2023-03-07T22:20:28.608Z,50.49
2023-03-07T22:22:59.164Z,51.24
2023-03-07T22:25:29.468Z,49.84
2023-03-07T22:27:59.704Z,48.84
2023-03-07T22:30:30.023Z,47.78
2023-03-07T22:33:00.783Z,47.24
2023-03-07T22:35:30.968Z,46.70
2023-03-07T22:38:01.151Z,46.27
2023-03-07T22:40:31.432Z,48.10
2023-03-07T22:43:01.822Z,48.32
2023-03-07T22:45:32.224Z,48.98
2023-03-07T22:48:02.364Z,50.55
2023-03-07T22:50:32.518Z,49.86
2023-03-07T22:53:02.696Z,52.25
2023-03-07T22:55:33.020Z,51.05
2023-03-07T22:58:03.536Z,49.68
2023-03-07T23:00:33.734Z,48.60
2023-03-07T23:03:03.996Z,49.57
2023-03-07T23:05:34.983Z,50.25
2023-03-07T23:08:05.877Z,50.75
2023-03-07T23:10:36.079Z,50.85
2023-03-07T23:13:06.429Z,51.12
2023-03-07T23:15:36.641Z,52.17
2023-03-07T23:18:06.927Z,55.13
2023-03-07T23:20:38.761Z,56.65
2023-03-07T23:23:37.997Z,57.58
2023-03-07T23:26:08.302Z,58.19
2023-03-07T23:28:38.522Z,58.88
2023-03-07T23:31:16.708Z,58.93
2023-03-07T23:33:47.220Z,59.85
2023-03-07T23:36:18.712Z,60.15
2023-03-07T23:38:49.132Z,60.06
2023-03-07T23:41:19.504Z,60.93
2023-03-07T23:43:54.539Z,61.08
2023-03-07T23:46:25.557Z,60.64
2023-03-07T23:48:56.238Z,60.69
2023-03-07T23:51:27.024Z,60.86
2023-03-07T23:53:57.269Z,60.79
2023-03-07T23:56:27.829Z,61.36
2023-03-07T23:58:57.969Z,61.44
